sensor_id;sensor_type;location;lat;lon;timestamp;P1;durP1;ratioP1;P2;durP2;ratioP2
77591;SDS011;66747;46.884;17.430;2023-01-10T00:00:11;4.80;;;0.80;;
77591;SDS011;66747;46.884;17.430;2023-01-10T00:02:40;6.10;;;0.83;;
77591;SDS011;66747;46.884;17.430;2023-01-10T00:05:08;7.20;;;1.08;;
77591;SDS011;66747;46.884;17.430;2023-01-10T00:07:35;5.45;;;1.00;;
77591;SDS011;66747;46.884;17.430;2023-01-10T00:10:02;5.80;;;0.88;;
77591;SDS011;66747;46.884;17.430;2023-01-10T00:12:30;5.60;;;0.80;;
77591;SDS011;66747;46.884;17.430;2023-01-10T00:15:15;7.17;;;1.00;;
77591;SDS011;66747;46.884;17.430;2023-01-10T00:17:44;5.32;;;0.73;;
77591;SDS011;66747;46.884;17.430;2023-01-10T00:20:11;5.85;;;1.00;;
77591;SDS011;66747;46.884;17.430;2023-01-10T00:22:38;5.85;;;0.73;;
77591;SDS011;66747;46.884;17.430;2023-01-10T00:25:06;5.10;;;0.90;;
77591;SDS011;66747;46.884;17.430;2023-01-10T00:27:33;4.87;;;0.67;;
77591;SDS011;66747;46.884;17.430;2023-01-10T00:30:01;5.43;;;0.80;;
77591;SDS011;66747;46.884;17.430;2023-01-10T00:32:40;5.45;;;0.80;;
77591;SDS011;66747;46.884;17.430;2023-01-10T00:35:08;5.65;;;0.90;;
77591;SDS011;66747;46.884;17.430;2023-01-10T00:37:36;5.65;;;0.88;;
77591;SDS011;66747;46.884;17.430;2023-01-10T00:40:04;5.93;;;1.03;;
77591;SDS011;66747;46.884;17.430;2023-01-10T00:42:36;4.97;;;0.80;;
77591;SDS011;66747;46.884;17.430;2023-01-10T00:45:22;4.53;;;0.77;;
77591;SDS011;66747;46.884;17.430;2023-01-10T00:47:51;5.97;;;1.10;;
77591;SDS011;66747;46.884;17.430;2023-01-10T00:50:20;5.50;;;0.90;;
77591;SDS011;66747;46.884;17.430;2023-01-10T00:52:47;5.23;;;0.80;;
77591;SDS011;66747;46.884;17.430;2023-01-10T00:55:14;5.90;;;1.00;;
77591;SDS011;66747;46.884;17.430;2023-01-10T00:57:41;6.38;;;1.20;;
77591;SDS011;66747;46.884;17.430;2023-01-10T01:00:09;5.90;;;1.20;;
77591;SDS011;66747;46.884;17.430;2023-01-10T01:02:37;6.07;;;0.98;;
77591;SDS011;66747;46.884;17.430;2023-01-10T01:05:05;5.33;;;0.90;;
77591;SDS011;66747;46.884;17.430;2023-01-10T01:07:34;5.65;;;0.93;;
77591;SDS011;66747;46.884;17.430;2023-01-10T01:10:01;5.78;;;1.08;;
77591;SDS011;66747;46.884;17.430;2023-01-10T01:12:47;6.80;;;1.20;;
77591;SDS011;66747;46.884;17.430;2023-01-10T01:15:14;5.85;;;1.00;;
77591;SDS011;66747;46.884;17.430;2023-01-10T01:17:42;5.10;;;0.80;;
77591;SDS011;66747;46.884;17.430;2023-01-10T01:20:09;4.82;;;0.80;;
77591;SDS011;66747;46.884;17.430;2023-01-10T01:22:38;6.13;;;0.90;;
77591;SDS011;66747;46.884;17.430;2023-01-10T01:25:06;6.32;;;0.90;;
77591;SDS011;66747;46.884;17.430;2023-01-10T01:27:34;5.40;;;0.90;;
77591;SDS011;66747;46.884;17.430;2023-01-10T01:30:04;5.67;;;0.70;;
77591;SDS011;66747;46.884;17.430;2023-01-10T01:32:32;5.00;;;0.80;;
77591;SDS011;66747;46.884;17.430;2023-01-10T01:35:00;5.75;;;0.70;;
77591;SDS011;66747;46.884;17.430;2023-01-10T01:37:27;4.47;;;0.70;;
77591;SDS011;66747;46.884;17.430;2023-01-10T01:39:56;4.28;;;0.65;;
77591;SDS011;66747;46.884;17.430;2023-01-10T01:42:24;5.03;;;0.83;;
77591;SDS011;66747;46.884;17.430;2023-01-10T01:48:02;4.68;;;0.68;;
77591;SDS011;66747;46.884;17.430;2023-01-10T01:50:35;5.30;;;0.98;;
77591;SDS011;66747;46.884;17.430;2023-01-10T01:53:07;4.90;;;0.60;;
77591;SDS011;66747;46.884;17.430;2023-01-10T01:55:39;4.57;;;0.57;;
77591;SDS011;66747;46.884;17.430;2023-01-10T01:58:09;4.43;;;0.57;;
77591;SDS011;66747;46.884;17.430;2023-01-10T02:00:41;4.15;;;0.50;;
77591;SDS011;66747;46.884;17.430;2023-01-10T02:03:08;4.93;;;0.70;;
77591;SDS011;66747;46.884;17.430;2023-01-10T02:05:39;4.22;;;0.50;;
77591;SDS011;66747;46.884;17.430;2023-01-10T02:08:07;4.67;;;0.47;;
77591;SDS011;66747;46.884;17.430;2023-01-10T02:10:36;3.95;;;0.52;;
77591;SDS011;66747;46.884;17.430;2023-01-10T02:13:11;3.83;;;0.47;;
77591;SDS011;66747;46.884;17.430;2023-01-10T02:15:40;4.65;;;0.40;;
77591;SDS011;66747;46.884;17.430;2023-01-10T02:18:08;4.25;;;1.05;;
77591;SDS011;66747;46.884;17.430;2023-01-10T02:20:37;4.73;;;0.40;;
77591;SDS011;66747;46.884;17.430;2023-01-10T02:23:16;4.20;;;0.60;;
77591;SDS011;66747;46.884;17.430;2023-01-10T02:26:11;3.83;;;0.40;;
77591;SDS011;66747;46.884;17.430;2023-01-10T02:29:03;4.22;;;0.50;;
77591;SDS011;66747;46.884;17.430;2023-01-10T02:35:05;3.27;;;0.40;;
77591;SDS011;66747;46.884;17.430;2023-01-10T02:37:44;4.78;;;0.50;;
77591;SDS011;66747;46.884;17.430;2023-01-10T02:40:21;3.75;;;0.40;;
77591;SDS011;66747;46.884;17.430;2023-01-10T02:42:54;5.07;;;0.65;;
77591;SDS011;66747;46.884;17.430;2023-01-10T02:45:27;3.95;;;0.50;;
77591;SDS011;66747;46.884;17.430;2023-01-10T02:48:00;3.47;;;0.50;;
77591;SDS011;66747;46.884;17.430;2023-01-10T02:50:29;5.10;;;0.50;;
77591;SDS011;66747;46.884;17.430;2023-01-10T02:53:10;4.97;;;0.60;;
77591;SDS011;66747;46.884;17.430;2023-01-10T02:55:43;4.15;;;0.60;;
77591;SDS011;66747;46.884;17.430;2023-01-10T02:58:28;4.20;;;0.60;;
77591;SDS011;66747;46.884;17.430;2023-01-10T03:01:07;3.50;;;0.40;;
77591;SDS011;66747;46.884;17.430;2023-01-10T03:03:45;5.70;;;0.70;;
77591;SDS011;66747;46.884;17.430;2023-01-10T03:06:20;4.78;;;0.40;;
77591;SDS011;66747;46.884;17.430;2023-01-10T03:08:58;4.15;;;0.50;;
77591;SDS011;66747;46.884;17.430;2023-01-10T03:11:30;4.05;;;0.80;;
77591;SDS011;66747;46.884;17.430;2023-01-10T03:14:07;5.63;;;0.80;;
77591;SDS011;66747;46.884;17.430;2023-01-10T03:16:40;4.88;;;0.70;;
77591;SDS011;66747;46.884;17.430;2023-01-10T03:19:14;5.97;;;1.10;;
77591;SDS011;66747;46.884;17.430;2023-01-10T03:21:45;5.57;;;0.75;;
77591;SDS011;66747;46.884;17.430;2023-01-10T03:24:16;5.25;;;0.77;;
77591;SDS011;66747;46.884;17.430;2023-01-10T03:26:46;4.90;;;0.73;;
77591;SDS011;66747;46.884;17.430;2023-01-10T03:29:19;4.68;;;0.70;;
77591;SDS011;66747;46.884;17.430;2023-01-10T03:31:50;5.75;;;1.00;;
77591;SDS011;66747;46.884;17.430;2023-01-10T03:34:23;4.82;;;0.68;;
77591;SDS011;66747;46.884;17.430;2023-01-10T03:36:52;5.18;;;0.93;;
77591;SDS011;66747;46.884;17.430;2023-01-10T03:39:29;5.67;;;0.80;;
77591;SDS011;66747;46.884;17.430;2023-01-10T03:42:01;5.95;;;0.82;;
77591;SDS011;66747;46.884;17.430;2023-01-10T03:44:35;5.95;;;1.00;;
77591;SDS011;66747;46.884;17.430;2023-01-10T03:47:12;5.88;;;0.90;;
77591;SDS011;66747;46.884;17.430;2023-01-10T03:49:47;4.78;;;1.00;;
77591;SDS011;66747;46.884;17.430;2023-01-10T03:52:19;6.00;;;0.80;;
77591;SDS011;66747;46.884;17.430;2023-01-10T03:54:47;5.88;;;0.95;;
77591;SDS011;66747;46.884;17.430;2023-01-10T03:57:15;5.05;;;0.98;;
77591;SDS011;66747;46.884;17.430;2023-01-10T03:59:44;5.18;;;0.90;;
77591;SDS011;66747;46.884;17.430;2023-01-10T04:02:18;6.25;;;1.05;;
77591;SDS011;66747;46.884;17.430;2023-01-10T04:04:47;5.53;;;0.80;;
77591;SDS011;66747;46.884;17.430;2023-01-10T04:07:14;5.63;;;1.00;;
77591;SDS011;66747;46.884;17.430;2023-01-10T04:09:42;5.53;;;0.80;;
77591;SDS011;66747;46.884;17.430;2023-01-10T04:12:09;6.05;;;1.05;;
77591;SDS011;66747;46.884;17.430;2023-01-10T04:14:36;6.88;;;1.05;;
77591;SDS011;66747;46.884;17.430;2023-01-10T04:17:03;6.10;;;1.10;;
77591;SDS011;66747;46.884;17.430;2023-01-10T04:19:31;5.63;;;1.02;;
77591;SDS011;66747;46.884;17.430;2023-01-10T04:22:00;4.47;;;0.75;;
77591;SDS011;66747;46.884;17.430;2023-01-10T04:24:27;5.10;;;0.93;;
77591;SDS011;66747;46.884;17.430;2023-01-10T04:26:54;5.43;;;0.90;;
77591;SDS011;66747;46.884;17.430;2023-01-10T04:29:22;6.47;;;0.80;;
77591;SDS011;66747;46.884;17.430;2023-01-10T04:31:49;6.35;;;0.93;;
77591;SDS011;66747;46.884;17.430;2023-01-10T04:34:16;5.65;;;1.00;;
77591;SDS011;66747;46.884;17.430;2023-01-10T04:36:45;5.95;;;1.10;;
77591;SDS011;66747;46.884;17.430;2023-01-10T04:39:17;5.93;;;1.00;;
77591;SDS011;66747;46.884;17.430;2023-01-10T04:41:44;5.10;;;0.87;;
77591;SDS011;66747;46.884;17.430;2023-01-10T04:44:11;4.68;;;0.80;;
77591;SDS011;66747;46.884;17.430;2023-01-10T04:46:39;5.32;;;0.90;;
77591;SDS011;66747;46.884;17.430;2023-01-10T04:49:07;4.80;;;0.98;;
77591;SDS011;66747;46.884;17.430;2023-01-10T04:51:35;6.30;;;0.98;;
77591;SDS011;66747;46.884;17.430;2023-01-10T04:54:02;6.13;;;1.10;;
77591;SDS011;66747;46.884;17.430;2023-01-10T04:56:31;5.72;;;0.73;;
77591;SDS011;66747;46.884;17.430;2023-01-10T04:58:59;5.15;;;1.20;;
77591;SDS011;66747;46.884;17.430;2023-01-10T05:01:26;6.28;;;0.90;;
77591;SDS011;66747;46.884;17.430;2023-01-10T05:03:54;5.15;;;1.10;;
77591;SDS011;66747;46.884;17.430;2023-01-10T05:06:22;4.77;;;0.80;;
77591;SDS011;66747;46.884;17.430;2023-01-10T05:08:50;6.55;;;0.90;;
77591;SDS011;66747;46.884;17.430;2023-01-10T05:11:17;5.72;;;0.98;;
77591;SDS011;66747;46.884;17.430;2023-01-10T05:13:46;5.15;;;1.00;;
77591;SDS011;66747;46.884;17.430;2023-01-10T05:16:14;7.22;;;1.27;;
77591;SDS011;66747;46.884;17.430;2023-01-10T05:18:42;5.20;;;1.00;;
77591;SDS011;66747;46.884;17.430;2023-01-10T05:21:10;6.75;;;1.20;;
77591;SDS011;66747;46.884;17.430;2023-01-10T05:23:39;6.05;;;0.98;;
77591;SDS011;66747;46.884;17.430;2023-01-10T05:26:06;6.80;;;1.20;;
77591;SDS011;66747;46.884;17.430;2023-01-10T05:28:36;4.88;;;0.82;;
77591;SDS011;66747;46.884;17.430;2023-01-10T05:31:06;5.20;;;1.00;;
77591;SDS011;66747;46.884;17.430;2023-01-10T05:33:34;4.68;;;0.82;;
77591;SDS011;66747;46.884;17.430;2023-01-10T05:36:02;6.50;;;1.58;;
77591;SDS011;66747;46.884;17.430;2023-01-10T05:38:30;5.00;;;0.77;;
77591;SDS011;66747;46.884;17.430;2023-01-10T05:40:58;5.53;;;1.15;;
77591;SDS011;66747;46.884;17.430;2023-01-10T05:43:26;5.30;;;0.90;;
77591;SDS011;66747;46.884;17.430;2023-01-10T05:45:53;5.15;;;0.75;;
77591;SDS011;66747;46.884;17.430;2023-01-10T05:48:22;5.15;;;0.77;;
77591;SDS011;66747;46.884;17.430;2023-01-10T05:50:49;6.38;;;0.90;;
77591;SDS011;66747;46.884;17.430;2023-01-10T05:53:19;5.43;;;0.82;;
77591;SDS011;66747;46.884;17.430;2023-01-10T05:55:51;5.77;;;0.80;;
77591;SDS011;66747;46.884;17.430;2023-01-10T05:58:20;4.40;;;0.68;;
77591;SDS011;66747;46.884;17.430;2023-01-10T06:00:47;5.22;;;0.88;;
77591;SDS011;66747;46.884;17.430;2023-01-10T06:03:14;5.95;;;0.70;;
77591;SDS011;66747;46.884;17.430;2023-01-10T06:05:43;5.65;;;1.00;;
77591;SDS011;66747;46.884;17.430;2023-01-10T06:08:13;6.80;;;1.00;;
77591;SDS011;66747;46.884;17.430;2023-01-10T06:10:41;5.50;;;0.75;;
77591;SDS011;66747;46.884;17.430;2023-01-10T06:13:08;4.50;;;0.60;;
77591;SDS011;66747;46.884;17.430;2023-01-10T06:15:35;4.72;;;0.80;;
77591;SDS011;66747;46.884;17.430;2023-01-10T06:18:03;5.05;;;0.73;;
77591;SDS011;66747;46.884;17.430;2023-01-10T06:20:30;5.13;;;0.63;;
77591;SDS011;66747;46.884;17.430;2023-01-10T06:22:59;5.65;;;0.80;;
77591;SDS011;66747;46.884;17.430;2023-01-10T06:25:30;4.55;;;0.70;;
77591;SDS011;66747;46.884;17.430;2023-01-10T06:27:57;4.40;;;0.80;;
77591;SDS011;66747;46.884;17.430;2023-01-10T06:30:25;4.97;;;0.90;;
77591;SDS011;66747;46.884;17.430;2023-01-10T06:32:52;4.60;;;0.70;;
77591;SDS011;66747;46.884;17.430;2023-01-10T06:35:19;6.30;;;0.80;;
77591;SDS011;66747;46.884;17.430;2023-01-10T06:37:46;5.88;;;0.70;;
77591;SDS011;66747;46.884;17.430;2023-01-10T06:40:15;4.50;;;0.68;;
77591;SDS011;66747;46.884;17.430;2023-01-10T06:42:43;5.38;;;0.90;;
77591;SDS011;66747;46.884;17.430;2023-01-10T06:45:10;4.93;;;0.80;;
77591;SDS011;66747;46.884;17.430;2023-01-10T06:47:37;5.07;;;0.75;;
77591;SDS011;66747;46.884;17.430;2023-01-10T06:50:05;5.80;;;0.90;;
77591;SDS011;66747;46.884;17.430;2023-01-10T06:52:33;5.85;;;1.20;;
77591;SDS011;66747;46.884;17.430;2023-01-10T06:55:00;5.63;;;1.10;;
77591;SDS011;66747;46.884;17.430;2023-01-10T06:57:29;5.83;;;0.97;;
77591;SDS011;66747;46.884;17.430;2023-01-10T06:59:56;5.18;;;0.77;;
77591;SDS011;66747;46.884;17.430;2023-01-10T07:02:23;6.05;;;1.27;;
77591;SDS011;66747;46.884;17.430;2023-01-10T07:04:51;5.47;;;1.17;;
77591;SDS011;66747;46.884;17.430;2023-01-10T07:07:18;6.28;;;1.30;;
77591;SDS011;66747;46.884;17.430;2023-01-10T07:09:45;6.10;;;1.07;;
77591;SDS011;66747;46.884;17.430;2023-01-10T07:12:13;6.28;;;1.40;;
77591;SDS011;66747;46.884;17.430;2023-01-10T07:14:41;6.53;;;1.20;;
77591;SDS011;66747;46.884;17.430;2023-01-10T07:17:09;5.85;;;1.30;;
77591;SDS011;66747;46.884;17.430;2023-01-10T07:19:36;7.38;;;1.23;;
77591;SDS011;66747;46.884;17.430;2023-01-10T07:22:03;5.70;;;1.10;;
77591;SDS011;66747;46.884;17.430;2023-01-10T07:24:30;5.82;;;1.20;;
77591;SDS011;66747;46.884;17.430;2023-01-10T07:26:57;5.35;;;1.10;;
77591;SDS011;66747;46.884;17.430;2023-01-10T07:29:24;5.53;;;1.25;;
77591;SDS011;66747;46.884;17.430;2023-01-10T07:31:53;6.90;;;1.42;;
77591;SDS011;66747;46.884;17.430;2023-01-10T07:34:20;6.33;;;1.20;;
77591;SDS011;66747;46.884;17.430;2023-01-10T07:36:48;5.88;;;1.35;;
77591;SDS011;66747;46.884;17.430;2023-01-10T07:39:15;6.80;;;1.58;;
77591;SDS011;66747;46.884;17.430;2023-01-10T07:41:42;6.47;;;1.40;;
77591;SDS011;66747;46.884;17.430;2023-01-10T07:44:10;5.70;;;1.50;;
77591;SDS011;66747;46.884;17.430;2023-01-10T07:46:37;7.07;;;1.50;;
77591;SDS011;66747;46.884;17.430;2023-01-10T07:49:05;6.95;;;1.65;;
77591;SDS011;66747;46.884;17.430;2023-01-10T07:51:33;6.47;;;1.42;;
77591;SDS011;66747;46.884;17.430;2023-01-10T07:54:00;6.53;;;1.50;;
77591;SDS011;66747;46.884;17.430;2023-01-10T07:56:27;5.60;;;1.33;;
77591;SDS011;66747;46.884;17.430;2023-01-10T07:58:54;5.40;;;1.10;;
77591;SDS011;66747;46.884;17.430;2023-01-10T08:01:22;7.20;;;1.55;;
77591;SDS011;66747;46.884;17.430;2023-01-10T08:03:50;6.32;;;1.48;;
77591;SDS011;66747;46.884;17.430;2023-01-10T08:06:19;5.63;;;1.10;;
77591;SDS011;66747;46.884;17.430;2023-01-10T08:08:46;7.25;;;1.10;;
77591;SDS011;66747;46.884;17.430;2023-01-10T08:11:32;6.27;;;1.10;;
77591;SDS011;66747;46.884;17.430;2023-01-10T08:14:00;6.13;;;1.20;;
77591;SDS011;66747;46.884;17.430;2023-01-10T08:16:28;6.15;;;1.20;;
77591;SDS011;66747;46.884;17.430;2023-01-10T08:18:55;5.75;;;1.10;;
77591;SDS011;66747;46.884;17.430;2023-01-10T08:21:24;6.20;;;1.40;;
77591;SDS011;66747;46.884;17.430;2023-01-10T08:23:51;6.40;;;1.30;;
77591;SDS011;66747;46.884;17.430;2023-01-10T08:26:19;6.18;;;1.27;;
77591;SDS011;66747;46.884;17.430;2023-01-10T08:28:47;7.05;;;1.50;;
77591;SDS011;66747;46.884;17.430;2023-01-10T08:31:14;6.07;;;1.38;;
77591;SDS011;66747;46.884;17.430;2023-01-10T08:33:41;6.15;;;1.40;;
77591;SDS011;66747;46.884;17.430;2023-01-10T08:36:14;6.37;;;1.13;;
77591;SDS011;66747;46.884;17.430;2023-01-10T08:38:44;5.70;;;1.20;;
77591;SDS011;66747;46.884;17.430;2023-01-10T08:41:12;6.18;;;1.30;;
77591;SDS011;66747;46.884;17.430;2023-01-10T08:43:39;6.10;;;1.20;;
77591;SDS011;66747;46.884;17.430;2023-01-10T08:46:06;6.38;;;1.30;;
77591;SDS011;66747;46.884;17.430;2023-01-10T08:48:34;6.37;;;1.57;;
77591;SDS011;66747;46.884;17.430;2023-01-10T08:51:06;6.35;;;1.40;;
77591;SDS011;66747;46.884;17.430;2023-01-10T08:53:34;6.43;;;1.42;;
77591;SDS011;66747;46.884;17.430;2023-01-10T08:56:03;5.75;;;1.10;;
77591;SDS011;66747;46.884;17.430;2023-01-10T08:58:31;6.25;;;1.42;;
77591;SDS011;66747;46.884;17.430;2023-01-10T09:00:58;6.33;;;1.33;;
77591;SDS011;66747;46.884;17.430;2023-01-10T09:03:26;7.07;;;1.25;;
77591;SDS011;66747;46.884;17.430;2023-01-10T09:05:53;6.38;;;1.35;;
77591;SDS011;66747;46.884;17.430;2023-01-10T09:08:20;7.05;;;1.33;;
77591;SDS011;66747;46.884;17.430;2023-01-10T09:10:48;5.60;;;1.15;;
77591;SDS011;66747;46.884;17.430;2023-01-10T09:13:16;5.93;;;1.20;;
77591;SDS011;66747;46.884;17.430;2023-01-10T09:15:44;5.50;;;1.00;;
77591;SDS011;66747;46.884;17.430;2023-01-10T09:18:11;5.57;;;1.20;;
77591;SDS011;66747;46.884;17.430;2023-01-10T09:20:40;7.05;;;1.42;;
77591;SDS011;66747;46.884;17.430;2023-01-10T09:23:09;5.78;;;1.08;;
77591;SDS011;66747;46.884;17.430;2023-01-10T09:25:37;6.33;;;1.30;;
77591;SDS011;66747;46.884;17.430;2023-01-10T09:28:05;6.35;;;1.27;;
77591;SDS011;66747;46.884;17.430;2023-01-10T09:30:33;6.55;;;1.50;;
77591;SDS011;66747;46.884;17.430;2023-01-10T09:33:01;7.53;;;1.42;;
77591;SDS011;66747;46.884;17.430;2023-01-10T09:35:29;5.63;;;1.30;;
77591;SDS011;66747;46.884;17.430;2023-01-10T09:37:58;5.13;;;1.13;;
77591;SDS011;66747;46.884;17.430;2023-01-10T09:40:30;7.38;;;1.60;;
77591;SDS011;66747;46.884;17.430;2023-01-10T09:43:07;7.20;;;1.67;;
77591;SDS011;66747;46.884;17.430;2023-01-10T09:45:44;6.90;;;1.60;;
77591;SDS011;66747;46.884;17.430;2023-01-10T09:48:18;7.22;;;1.70;;
77591;SDS011;66747;46.884;17.430;2023-01-10T09:50:53;6.90;;;1.83;;
77591;SDS011;66747;46.884;17.430;2023-01-10T09:53:30;7.25;;;1.75;;
77591;SDS011;66747;46.884;17.430;2023-01-10T09:56:00;7.40;;;1.80;;
77591;SDS011;66747;46.884;17.430;2023-01-10T09:58:28;6.75;;;1.60;;
77591;SDS011;66747;46.884;17.430;2023-01-10T10:01:02;6.50;;;1.60;;
77591;SDS011;66747;46.884;17.430;2023-01-10T10:03:34;7.07;;;1.70;;
77591;SDS011;66747;46.884;17.430;2023-01-10T10:06:08;6.72;;;1.80;;
77591;SDS011;66747;46.884;17.430;2023-01-10T10:08:38;7.88;;;1.80;;
77591;SDS011;66747;46.884;17.430;2023-01-10T10:11:08;8.10;;;1.38;;
77591;SDS011;66747;46.884;17.430;2023-01-10T10:13:49;7.03;;;1.42;;
77591;SDS011;66747;46.884;17.430;2023-01-10T10:16:27;7.07;;;1.67;;
77591;SDS011;66747;46.884;17.430;2023-01-10T10:19:04;6.45;;;1.50;;
77591;SDS011;66747;46.884;17.430;2023-01-10T10:21:42;6.85;;;1.58;;
77591;SDS011;66747;46.884;17.430;2023-01-10T10:24:32;6.65;;;1.58;;
77591;SDS011;66747;46.884;17.430;2023-01-10T10:27:13;8.73;;;1.98;;
77591;SDS011;66747;46.884;17.430;2023-01-10T10:29:54;7.23;;;1.80;;
77591;SDS011;66747;46.884;17.430;2023-01-10T10:32:47;6.80;;;1.50;;
77591;SDS011;66747;46.884;17.430;2023-01-10T10:35:37;6.80;;;1.75;;
77591;SDS011;66747;46.884;17.430;2023-01-10T10:38:08;6.35;;;1.63;;
77591;SDS011;66747;46.884;17.430;2023-01-10T10:40:41;7.50;;;2.05;;
77591;SDS011;66747;46.884;17.430;2023-01-10T10:43:12;7.67;;;1.80;;
77591;SDS011;66747;46.884;17.430;2023-01-10T10:45:46;6.78;;;1.80;;
77591;SDS011;66747;46.884;17.430;2023-01-10T10:48:20;8.05;;;2.20;;
77591;SDS011;66747;46.884;17.430;2023-01-10T10:50:54;7.10;;;1.90;;
77591;SDS011;66747;46.884;17.430;2023-01-10T10:53:25;6.78;;;1.55;;
77591;SDS011;66747;46.884;17.430;2023-01-10T10:55:53;7.57;;;1.80;;
77591;SDS011;66747;46.884;17.430;2023-01-10T10:58:21;7.40;;;1.95;;
77591;SDS011;66747;46.884;17.430;2023-01-10T11:00:48;8.25;;;2.30;;
77591;SDS011;66747;46.884;17.430;2023-01-10T11:03:24;8.02;;;1.83;;
77591;SDS011;66747;46.884;17.430;2023-01-10T11:05:54;6.47;;;1.60;;
77591;SDS011;66747;46.884;17.430;2023-01-10T11:08:22;7.50;;;1.90;;
77591;SDS011;66747;46.884;17.430;2023-01-10T11:10:51;6.70;;;1.60;;
77591;SDS011;66747;46.884;17.430;2023-01-10T11:13:34;7.22;;;1.90;;
77591;SDS011;66747;46.884;17.430;2023-01-10T11:16:21;7.55;;;2.10;;
77591;SDS011;66747;46.884;17.430;2023-01-10T11:21:51;7.13;;;1.90;;
77591;SDS011;66747;46.884;17.430;2023-01-10T11:24:25;7.28;;;1.95;;
77591;SDS011;66747;46.884;17.430;2023-01-10T11:26:54;7.53;;;1.95;;
77591;SDS011;66747;46.884;17.430;2023-01-10T11:29:24;8.18;;;2.15;;
77591;SDS011;66747;46.884;17.430;2023-01-10T11:31:55;8.23;;;2.42;;
77591;SDS011;66747;46.884;17.430;2023-01-10T11:34:23;10.53;;;2.50;;
77591;SDS011;66747;46.884;17.430;2023-01-10T11:36:55;10.10;;;2.75;;
77591;SDS011;66747;46.884;17.430;2023-01-10T11:39:24;11.07;;;2.80;;
77591;SDS011;66747;46.884;17.430;2023-01-10T11:41:52;11.02;;;3.10;;
77591;SDS011;66747;46.884;17.430;2023-01-10T11:44:22;10.65;;;3.55;;
77591;SDS011;66747;46.884;17.430;2023-01-10T11:46:51;11.97;;;3.27;;
77591;SDS011;66747;46.884;17.430;2023-01-10T11:49:26;10.15;;;3.17;;
77591;SDS011;66747;46.884;17.430;2023-01-10T11:52:01;9.95;;;3.72;;
77591;SDS011;66747;46.884;17.430;2023-01-10T11:54:30;9.55;;;3.05;;
77591;SDS011;66747;46.884;17.430;2023-01-10T11:56:59;8.30;;;3.20;;
77591;SDS011;66747;46.884;17.430;2023-01-10T11:59:28;11.13;;;3.37;;
77591;SDS011;66747;46.884;17.430;2023-01-10T12:01:57;10.43;;;3.58;;
77591;SDS011;66747;46.884;17.430;2023-01-10T12:04:27;9.18;;;3.05;;
77591;SDS011;66747;46.884;17.430;2023-01-10T12:06:57;9.68;;;3.22;;
77591;SDS011;66747;46.884;17.430;2023-01-10T12:09:36;11.20;;;3.50;;
77591;SDS011;66747;46.884;17.430;2023-01-10T12:12:10;9.53;;;3.30;;
77591;SDS011;66747;46.884;17.430;2023-01-10T12:14:41;8.98;;;3.22;;
77591;SDS011;66747;46.884;17.430;2023-01-10T12:17:10;9.80;;;3.13;;
77591;SDS011;66747;46.884;17.430;2023-01-10T12:19:47;10.35;;;3.08;;
77591;SDS011;66747;46.884;17.430;2023-01-10T12:22:14;10.10;;;3.13;;
77591;SDS011;66747;46.884;17.430;2023-01-10T12:24:44;9.77;;;3.20;;
77591;SDS011;66747;46.884;17.430;2023-01-10T12:27:14;9.73;;;3.42;;
77591;SDS011;66747;46.884;17.430;2023-01-10T12:29:44;9.77;;;3.20;;
77591;SDS011;66747;46.884;17.430;2023-01-10T12:32:16;9.55;;;3.17;;
77591;SDS011;66747;46.884;17.430;2023-01-10T12:34:49;10.43;;;3.20;;
77591;SDS011;66747;46.884;17.430;2023-01-10T12:37:25;11.47;;;3.87;;
77591;SDS011;66747;46.884;17.430;2023-01-10T12:40:00;10.30;;;4.35;;
77591;SDS011;66747;46.884;17.430;2023-01-10T12:42:34;13.30;;;4.60;;
77591;SDS011;66747;46.884;17.430;2023-01-10T12:45:30;10.60;;;3.95;;
77591;SDS011;66747;46.884;17.430;2023-01-10T12:48:05;11.13;;;4.00;;
77591;SDS011;66747;46.884;17.430;2023-01-10T12:50:42;9.77;;;3.97;;
77591;SDS011;66747;46.884;17.430;2023-01-10T12:53:22;11.68;;;4.25;;
77591;SDS011;66747;46.884;17.430;2023-01-10T12:55:56;10.52;;;4.30;;
77591;SDS011;66747;46.884;17.430;2023-01-10T12:58:27;11.00;;;4.28;;
77591;SDS011;66747;46.884;17.430;2023-01-10T13:01:01;9.98;;;3.88;;
77591;SDS011;66747;46.884;17.430;2023-01-10T13:03:31;9.37;;;3.53;;
77591;SDS011;66747;46.884;17.430;2023-01-10T13:06:00;9.68;;;3.40;;
77591;SDS011;66747;46.884;17.430;2023-01-10T13:08:28;9.70;;;3.50;;
77591;SDS011;66747;46.884;17.430;2023-01-10T13:11:00;9.43;;;3.80;;
77591;SDS011;66747;46.884;17.430;2023-01-10T13:13:30;10.27;;;4.00;;
77591;SDS011;66747;46.884;17.430;2023-01-10T13:16:09;11.53;;;3.93;;
77591;SDS011;66747;46.884;17.430;2023-01-10T13:18:57;11.95;;;3.97;;
77591;SDS011;66747;46.884;17.430;2023-01-10T13:21:30;10.88;;;3.45;;
77591;SDS011;66747;46.884;17.430;2023-01-10T13:24:00;9.75;;;3.28;;
77591;SDS011;66747;46.884;17.430;2023-01-10T13:26:49;9.18;;;3.35;;
77591;SDS011;66747;46.884;17.430;2023-01-10T13:29:19;8.77;;;3.17;;
77591;SDS011;66747;46.884;17.430;2023-01-10T13:31:47;9.18;;;2.78;;
77591;SDS011;66747;46.884;17.430;2023-01-10T13:34:16;8.52;;;2.70;;
77591;SDS011;66747;46.884;17.430;2023-01-10T13:36:48;8.57;;;2.72;;
77591;SDS011;66747;46.884;17.430;2023-01-10T13:39:22;9.70;;;2.80;;
77591;SDS011;66747;46.884;17.430;2023-01-10T13:42:11;10.33;;;2.87;;
77591;SDS011;66747;46.884;17.430;2023-01-10T13:45:22;11.18;;;3.50;;
77591;SDS011;66747;46.884;17.430;2023-01-10T13:47:58;11.45;;;3.80;;
77591;SDS011;66747;46.884;17.430;2023-01-10T13:53:42;12.10;;;3.80;;
77591;SDS011;66747;46.884;17.430;2023-01-10T13:56:30;9.43;;;3.93;;
77591;SDS011;66747;46.884;17.430;2023-01-10T13:59:04;10.98;;;3.80;;
77591;SDS011;66747;46.884;17.430;2023-01-10T14:01:56;10.40;;;3.30;;
77591;SDS011;66747;46.884;17.430;2023-01-10T14:04:45;10.30;;;4.03;;
77591;SDS011;66747;46.884;17.430;2023-01-10T14:07:19;10.50;;;3.60;;
77591;SDS011;66747;46.884;17.430;2023-01-10T14:09:50;9.90;;;3.03;;
77591;SDS011;66747;46.884;17.430;2023-01-10T14:12:25;13.10;;;4.03;;
77591;SDS011;66747;46.884;17.430;2023-01-10T14:14:58;11.55;;;3.97;;
77591;SDS011;66747;46.884;17.430;2023-01-10T14:17:28;11.35;;;4.05;;
77591;SDS011;66747;46.884;17.430;2023-01-10T14:19:58;9.75;;;3.33;;
77591;SDS011;66747;46.884;17.430;2023-01-10T14:22:28;11.17;;;3.03;;
77591;SDS011;66747;46.884;17.430;2023-01-10T14:24:57;11.90;;;3.83;;
77591;SDS011;66747;46.884;17.430;2023-01-10T14:27:25;8.63;;;3.35;;
77591;SDS011;66747;46.884;17.430;2023-01-10T14:29:58;10.43;;;3.50;;
77591;SDS011;66747;46.884;17.430;2023-01-10T14:32:30;9.00;;;3.63;;
77591;SDS011;66747;46.884;17.430;2023-01-10T14:35:00;11.07;;;3.57;;
77591;SDS011;66747;46.884;17.430;2023-01-10T14:37:30;8.68;;;3.03;;
77591;SDS011;66747;46.884;17.430;2023-01-10T14:40:04;9.63;;;2.90;;
77591;SDS011;66747;46.884;17.430;2023-01-10T14:42:36;7.63;;;2.85;;
77591;SDS011;66747;46.884;17.430;2023-01-10T14:45:07;8.80;;;2.67;;
77591;SDS011;66747;46.884;17.430;2023-01-10T14:47:45;10.30;;;2.47;;
77591;SDS011;66747;46.884;17.430;2023-01-10T14:52:59;10.15;;;3.53;;
77591;SDS011;66747;46.884;17.430;2023-01-10T14:55:26;10.80;;;3.08;;
77591;SDS011;66747;46.884;17.430;2023-01-10T14:57:54;10.80;;;3.15;;
77591;SDS011;66747;46.884;17.430;2023-01-10T15:00:28;10.80;;;3.20;;
77591;SDS011;66747;46.884;17.430;2023-01-10T15:02:57;10.65;;;3.25;;
77591;SDS011;66747;46.884;17.430;2023-01-10T15:05:29;12.00;;;3.35;;
77591;SDS011;66747;46.884;17.430;2023-01-10T15:08:13;9.48;;;3.10;;
77591;SDS011;66747;46.884;17.430;2023-01-10T15:10:42;10.23;;;2.78;;